Time,TemperatureF,DewpointF,PressureIn,WindDirection,WindDirectionDegrees,WindSpeedMPH,WindSpeedGustMPH,Humidity,HourlyPrecipIn,Conditions,Clouds,dailyrainin,SoftwareType,DateUTC
2013-04-14 00:12:00,40.3,35.0,29.33,SSW,204,0.0,1.0,81,0.00,,,0.00,weatherlink.com 1.10,2013-04-14 06:12:00,
2013-04-14 00:27:00,41.0,35.0,29.33,WSW,252,1.0,4.0,80,0.00,,,0.00,weatherlink.com 1.10,2013-04-14 06:27:00,
2013-04-14 00:42:00,41.5,35.0,29.33,WSW,242,2.0,5.0,78,0.00,,,0.00,weatherlink.com 1.10,2013-04-14 06:42:00,
2013-04-14 00:57:00,42.1,34.0,29.33,West,270,4.0,11.0,73,0.00,,,0.00,weatherlink.com 1.10,2013-04-14 06:57:00,
2013-04-14 01:12:00,42.9,31.0,29.32,West,279,8.0,14.0,62,0.00,,,0.00,weatherlink.com 1.10,2013-04-14 07:12:00,
2013-04-14 01:27:00,43.3,30.0,29.33,West,269,10.0,14.0,60,0.00,,,0.00,weatherlink.com 1.10,2013-04-14 07:27:00,
2013-04-14 01:42:00,42.5,33.0,29.33,SW,226,7.0,13.0,69,0.00,,,0.00,weatherlink.com 1.10,2013-04-14 07:42:00,
2013-04-14 01:57:00,41.2,35.0,29.36,West,269,5.0,12.0,78,0.00,,,0.00,weatherlink.com 1.10,2013-04-14 07:57:00,
2013-04-14 02:12:00,39.5,34.0,29.36,WNW,283,4.0,8.0,81,0.00,,,0.00,weatherlink.com 1.10,2013-04-14 08:12:00,
2013-04-14 02:27:00,38.8,34.0,29.35,WNW,300,3.0,8.0,82,0.00,,,0.00,weatherlink.com 1.10,2013-04-14 08:27:00,
2013-04-14 02:42:00,38.1,33.0,29.35,WSW,257,4.0,7.0,82,0.00,,,0.00,weatherlink.com 1.10,2013-04-14 08:42:00,
2013-04-14 02:57:00,37.6,33.0,29.34,WNW,285,3.0,10.0,83,0.00,,,0.00,weatherlink.com 1.10,2013-04-14 08:57:00,
2013-04-14 03:12:00,37.2,33.0,29.34,WSW,247,3.0,8.0,84,0.00,,,0.00,weatherlink.com 1.10,2013-04-14 09:12:00,
2013-04-14 03:27:00,36.8,32.0,29.34,WNW,283,5.0,9.0,84,0.00,,,0.00,weatherlink.com 1.10,2013-04-14 09:27:00,
2013-04-14 03:42:00,36.5,32.0,29.34,WSW,257,2.0,7.0,84,0.00,,,0.00,weatherlink.com 1.10,2013-04-14 09:42:00,
2013-04-14 03:57:00,35.8,31.0,29.35,West,264,5.0,8.0,84,0.00,,,0.00,weatherlink.com 1.10,2013-04-14 09:57:00,
2013-04-14 04:12:00,35.6,31.0,29.35,West,274,1.0,8.0,84,0.00,,,0.00,weatherlink.com 1.10,2013-04-14 10:12:00,
2013-04-14 04:27:00,34.7,31.0,29.35,WSW,250,9.0,9.0,86,0.00,,,0.00,weatherlink.com 1.10,2013-04-14 10:27:00,
2013-04-14 04:42:00,34.3,30.0,29.36,WNW,290,2.0,5.0,85,0.00,,,0.00,weatherlink.com 1.10,2013-04-14 10:42:00,
2013-04-14 04:58:00,31.8,28.0,29.36,WSW,257,5.0,7.0,85,0.00,,,0.00,weatherlink.com 1.10,2013-04-14 10:58:00,
2013-04-14 05:13:00,-999.0,-99.9,29.36,North,-999,-999.0,-999.0,-999,0.00,,,0.00,weatherlink.com 1.10,2013-04-14 11:13:00,
2013-04-14 05:28:00,-999.0,-99.9,29.35,North,-999,-999.0,-999.0,-999,0.00,,,0.00,weatherlink.com 1.10,2013-04-14 11:28:00,
2013-04-14 05:43:00,-999.0,-99.9,29.36,North,-999,-999.0,-999.0,-999,0.00,,,0.00,weatherlink.com 1.10,2013-04-14 11:43:00,
2013-04-14 05:58:00,-999.0,-99.9,29.38,North,-999,-999.0,-999.0,-999,0.00,,,0.00,weatherlink.com 1.10,2013-04-14 11:58:00,
2013-04-14 06:13:00,-999.0,-99.9,29.39,North,-999,-999.0,-999.0,-999,0.00,,,0.00,weatherlink.com 1.10,2013-04-14 12:13:00,
2013-04-14 06:28:00,-999.0,-99.9,29.39,North,-999,-999.0,-999.0,-999,0.00,,,0.00,weatherlink.com 1.10,2013-04-14 12:28:00,
2013-04-14 06:43:00,-999.0,-99.9,29.39,North,-999,-999.0,-999.0,-999,0.00,,,0.00,weatherlink.com 1.10,2013-04-14 12:43:00,
2013-04-14 06:58:00,31.4,26.0,29.40,WNW,285,9.0,14.0,80,0.00,,,0.00,weatherlink.com 1.10,2013-04-14 12:58:00,
2013-04-14 07:13:00,32.1,26.0,29.41,West,278,10.0,16.0,78,0.00,,,0.00,weatherlink.com 1.10,2013-04-14 13:13:00,
2013-04-14 07:28:00,32.5,27.0,29.43,WNW,291,5.0,13.0,80,0.00,,,0.00,weatherlink.com 1.10,2013-04-14 13:28:00,
2013-04-14 07:43:00,32.1,27.0,29.44,West,262,5.0,11.0,81,0.00,,,0.00,weatherlink.com 1.10,2013-04-14 13:43:00,
2013-04-14 07:58:00,32.1,27.0,29.45,WSW,255,8.0,13.0,82,0.00,,,0.00,weatherlink.com 1.10,2013-04-14 13:58:00,
2013-04-14 08:13:00,32.2,27.0,29.45,West,274,6.0,14.0,81,0.00,,,0.00,weatherlink.com 1.10,2013-04-14 14:13:00,
2013-04-14 08:28:00,32.3,27.0,29.46,NW,305,7.0,12.0,82,0.00,,,0.00,weatherlink.com 1.10,2013-04-14 14:28:00,
2013-04-14 08:43:00,32.9,28.0,29.46,West,274,3.0,8.0,81,0.00,,,0.00,weatherlink.com 1.10,2013-04-14 14:43:00,
2013-04-14 08:58:00,33.5,27.0,29.48,WSW,253,4.0,8.0,77,0.00,,,0.00,weatherlink.com 1.10,2013-04-14 14:58:00,
2013-04-14 09:13:00,33.6,26.0,29.48,West,273,5.0,14.0,74,0.00,,,0.00,weatherlink.com 1.10,2013-04-14 15:13:00,
2013-04-14 09:28:00,34.0,24.0,29.48,West,277,8.0,18.0,68,0.00,,,0.00,weatherlink.com 1.10,2013-04-14 15:28:00,
2013-04-14 09:43:00,34.4,25.0,29.48,WNW,288,9.0,20.0,68,0.00,,,0.00,weatherlink.com 1.10,2013-04-14 15:43:00,
2013-04-14 09:58:00,34.6,25.0,29.49,WNW,284,13.0,18.0,67,0.00,,,0.00,weatherlink.com 1.10,2013-04-14 15:58:00,
2013-04-14 10:13:00,34.7,25.0,29.49,WNW,300,13.0,17.0,69,0.00,,,0.00,weatherlink.com 1.10,2013-04-14 16:13:00,
2013-04-14 10:29:00,34.5,25.0,29.50,WNW,288,12.0,21.0,69,0.00,,,0.00,weatherlink.com 1.10,2013-04-14 16:29:00,
2013-04-14 10:44:00,35.4,27.0,29.50,WSW,257,7.0,18.0,72,0.00,,,0.00,weatherlink.com 1.10,2013-04-14 16:44:00,
2013-04-14 10:59:00,35.9,25.0,29.50,NW,316,13.0,17.0,66,0.00,,,0.00,weatherlink.com 1.10,2013-04-14 16:59:00,
2013-04-14 11:14:00,37.2,26.0,29.50,WNW,284,11.0,17.0,65,0.00,,,0.00,weatherlink.com 1.10,2013-04-14 17:14:00,
2013-04-14 11:29:00,37.7,24.0,29.49,WNW,283,10.0,27.0,57,0.00,,,0.00,weatherlink.com 1.10,2013-04-14 17:29:00,
2013-04-14 11:44:00,39.1,21.0,29.49,West,260,9.0,22.0,49,0.00,,,0.00,weatherlink.com 1.10,2013-04-14 17:44:00,
2013-04-14 11:59:00,38.7,21.0,29.50,West,276,10.0,26.0,50,0.00,,,0.00,weatherlink.com 1.10,2013-04-14 17:59:00,
2013-04-14 12:14:00,38.3,20.0,29.50,WNW,288,12.0,23.0,49,0.00,,,0.00,weatherlink.com 1.10,2013-04-14 18:14:00,
2013-04-14 12:29:00,37.7,22.0,29.49,WNW,302,7.0,12.0,53,0.00,,,0.00,weatherlink.com 1.10,2013-04-14 18:29:00,
2013-04-14 12:44:00,38.6,19.0,29.49,WSW,252,12.0,18.0,45,0.00,,,0.00,weatherlink.com 1.10,2013-04-14 18:44:00,
2013-04-14 12:59:00,41.0,16.0,29.48,NW,319,19.0,20.0,37,0.00,,,0.00,weatherlink.com 1.10,2013-04-14 18:59:00,
2013-04-14 13:14:00,41.0,15.0,29.49,WSW,256,14.0,22.0,35,0.00,,,0.00,weatherlink.com 1.10,2013-04-14 19:14:00,
2013-04-14 13:29:00,40.4,17.0,29.50,WSW,241,13.0,21.0,39,0.00,,,0.00,weatherlink.com 1.10,2013-04-14 19:29:00,
2013-04-14 13:44:00,39.5,20.0,29.51,SW,236,12.0,23.0,45,0.00,,,0.00,weatherlink.com 1.10,2013-04-14 19:44:00,
2013-04-14 13:59:00,40.2,19.0,29.50,West,262,7.0,16.0,42,0.00,,,0.00,weatherlink.com 1.10,2013-04-14 19:59:00,
2013-04-14 14:14:00,40.8,16.0,29.50,WNW,300,7.0,15.0,37,0.00,,,0.00,weatherlink.com 1.10,2013-04-14 20:14:00,
2013-04-14 14:29:00,41.0,20.0,29.50,West,264,7.0,19.0,43,0.00,,,0.00,weatherlink.com 1.10,2013-04-14 20:29:00,
2013-04-14 14:44:00,41.6,17.0,29.51,WNW,287,13.0,22.0,37,0.00,,,0.00,weatherlink.com 1.10,2013-04-14 20:44:00,
2013-04-14 14:59:00,41.6,16.0,29.51,West,274,7.0,15.0,36,0.00,,,0.00,weatherlink.com 1.10,2013-04-14 20:59:00,
2013-04-14 15:14:00,41.2,18.0,29.51,SW,217,7.0,19.0,39,0.00,,,0.00,weatherlink.com 1.10,2013-04-14 21:14:00,
2013-04-14 15:29:00,41.2,19.0,29.51,WSW,245,9.0,17.0,41,0.00,,,0.00,weatherlink.com 1.10,2013-04-14 21:29:00,
2013-04-14 15:44:00,43.7,16.0,29.50,West,266,14.0,23.0,33,0.00,,,0.00,weatherlink.com 1.10,2013-04-14 21:44:00,
2013-04-14 15:59:00,43.1,13.0,29.51,NW,309,13.0,24.0,30,0.00,,,0.00,weatherlink.com 1.10,2013-04-14 21:59:00,
2013-04-14 16:14:00,42.6,17.0,29.52,West,267,10.0,15.0,36,0.00,,,0.00,weatherlink.com 1.10,2013-04-14 22:14:00,
2013-04-14 16:29:00,42.2,18.0,29.52,West,271,9.0,19.0,38,0.00,,,0.00,weatherlink.com 1.10,2013-04-14 22:29:00,
2013-04-14 16:44:00,42.3,14.0,29.52,WNW,294,7.0,17.0,32,0.00,,,0.00,weatherlink.com 1.10,2013-04-14 22:44:00,
2013-04-14 16:59:00,43.7,12.0,29.52,WNW,300,10.0,22.0,28,0.00,,,0.00,weatherlink.com 1.10,2013-04-14 22:59:00,
2013-04-14 17:14:00,43.0,14.0,29.53,West,260,11.0,18.0,31,0.00,,,0.00,weatherlink.com 1.10,2013-04-14 23:14:00,
2013-04-14 17:29:00,43.2,15.0,29.53,WSW,248,12.0,25.0,32,0.00,,,0.00,weatherlink.com 1.10,2013-04-14 23:29:00,
2013-04-14 17:44:00,43.9,16.0,29.54,WNW,293,12.0,22.0,32,0.00,,,0.00,weatherlink.com 1.10,2013-04-14 23:44:00,
2013-04-14 17:59:00,44.5,15.0,29.54,WNW,284,11.0,19.0,31,0.00,,,0.00,weatherlink.com 1.10,2013-04-14 23:59:00,
2013-04-14 18:14:00,44.2,15.0,29.54,West,276,7.0,19.0,31,0.00,,,0.00,weatherlink.com 1.10,2013-04-15 00:14:00,
2013-04-14 18:29:00,43.7,15.0,29.54,West,266,12.0,19.0,32,0.00,,,0.00,weatherlink.com 1.10,2013-04-15 00:29:00,
2013-04-14 18:44:00,42.9,15.0,29.55,WNW,288,13.0,18.0,33,0.00,,,0.00,weatherlink.com 1.10,2013-04-15 00:44:00,
2013-04-14 18:59:00,41.1,16.0,29.56,West,274,8.0,16.0,37,0.00,,,0.00,weatherlink.com 1.10,2013-04-15 00:59:00,
2013-04-14 19:14:00,40.0,23.0,29.57,NW,316,9.0,14.0,50,0.00,,,0.00,weatherlink.com 1.10,2013-04-15 01:14:00,
2013-04-14 19:29:00,38.7,24.0,29.58,NW,310,6.0,14.0,55,0.00,,,0.00,weatherlink.com 1.10,2013-04-15 01:29:00,
2013-04-14 19:44:00,37.5,24.0,29.59,West,274,5.0,14.0,59,0.00,,,0.00,weatherlink.com 1.10,2013-04-15 01:44:00,
2013-04-14 19:59:00,36.7,24.0,29.61,West,273,11.0,14.0,61,0.00,,,0.00,weatherlink.com 1.10,2013-04-15 01:59:00,
2013-04-14 20:14:00,35.4,25.0,29.63,NNW,336,6.0,16.0,65,0.00,,,0.00,weatherlink.com 1.10,2013-04-15 02:14:00,
2013-04-14 20:30:00,34.3,24.0,29.64,NW,310,8.0,12.0,67,0.00,,,0.00,weatherlink.com 1.10,2013-04-15 02:30:00,
2013-04-14 20:45:00,33.7,25.0,29.65,WNW,302,7.0,14.0,69,0.00,,,0.00,weatherlink.com 1.10,2013-04-15 02:45:00,
2013-04-14 21:00:00,32.7,24.0,29.66,WNW,300,6.0,9.0,71,0.00,,,0.00,weatherlink.com 1.10,2013-04-15 03:00:00,
2013-04-14 21:15:00,31.9,24.0,29.67,WNW,285,5.0,9.0,73,0.00,,,0.00,weatherlink.com 1.10,2013-04-15 03:15:00,
2013-04-14 21:30:00,31.5,24.0,29.68,WNW,302,5.0,11.0,74,0.00,,,0.00,weatherlink.com 1.10,2013-04-15 03:30:00,
2013-04-14 21:45:00,31.8,24.0,29.68,WNW,283,7.0,16.0,73,0.00,,,0.00,weatherlink.com 1.10,2013-04-15 03:45:00,
2013-04-14 22:00:00,31.3,24.0,29.68,NW,307,7.0,19.0,73,0.00,,,0.00,weatherlink.com 1.10,2013-04-15 04:00:00,
2013-04-14 22:15:00,30.9,23.0,29.67,WNW,297,11.0,17.0,72,0.00,,,0.00,weatherlink.com 1.10,2013-04-15 04:15:00,
2013-04-14 22:30:00,30.7,22.0,29.67,NW,314,19.0,20.0,71,0.00,,,0.00,weatherlink.com 1.10,2013-04-15 04:30:00,
2013-04-14 22:45:00,30.5,21.0,29.67,NW,321,11.0,17.0,69,0.00,,,0.00,weatherlink.com 1.10,2013-04-15 04:45:00,
2013-04-14 23:00:00,29.8,21.0,29.69,NNW,328,10.0,15.0,69,0.00,,,0.00,weatherlink.com 1.10,2013-04-15 05:00:00,
2013-04-14 23:15:00,29.5,20.0,29.70,NW,319,6.0,19.0,69,0.00,,,0.00,weatherlink.com 1.10,2013-04-15 05:15:00,
2013-04-14 23:30:00,29.0,20.0,29.71,West,272,5.0,11.0,70,0.00,,,0.00,weatherlink.com 1.10,2013-04-15 05:30:00,
2013-04-14 23:45:00,28.6,20.0,29.71,WNW,301,4.0,11.0,71,0.00,,,0.00,weatherlink.com 1.10,2013-04-15 05:45:00,